Time;durP1;ratioP1;P1;durP2;ratioP2;P2;SDS_P1;SDS_P2;PMS_P1;PMS_P2;Temp;Humidity;BMP_temperature;BMP_pressure;BME280_temperature;BME280_humidity;BME280_pressure;Samples;Min_cycle;Max_cycle;Signal;HPM_P1;HPM_P2
2023/07/29 00:01:49;;;;;;;4.28;3.88;;;;;;;18.58;100.00;98952.72;5073311;28;20024;-89
2023/07/29 00:04:14;;;;;;;3.95;3.65;;;;;;;18.54;100.00;98946.06;5074636;28;20557;-89
2023/07/29 00:06:40;;;;;;;5.60;4.28;;;;;;;18.42;100.00;98923.44;5073478;28;20065;-90
2023/07/29 00:09:05;;;;;;;3.60;3.30;;;;;;;18.62;100.00;98955.91;5072973;28;20392;-89
2023/07/29 00:11:33;;;;;;;5.80;4.78;;;;;;;18.54;100.00;98947.84;5073289;28;20036;-89
2023/07/29 00:13:59;;;;;;;3.95;3.63;;;;;;;18.63;100.00;98955.78;5074326;28;20020;-89
2023/07/29 00:16:24;;;;;;;4.13;3.72;;;;;;;18.45;100.00;98929.25;5073055;28;20030;-89
2023/07/29 00:18:50;;;;;;;4.45;4.05;;;;;;;18.58;100.00;98955.38;5074661;28;20375;-89
2023/07/29 00:21:15;;;;;;;3.90;3.53;;;;;;;18.49;100.00;98948.25;5074168;28;20028;-89
2023/07/29 00:23:40;;;;;;;4.13;3.72;;;;;;;18.43;100.00;98951.47;5074478;28;20021;-89
2023/07/29 00:26:06;;;;;;;4.15;3.50;;;;;;;18.45;100.00;98949.50;5074080;28;20048;-89
2023/07/29 00:28:31;;;;;;;3.92;3.63;;;;;;;18.27;100.00;98930.91;5073108;28;20034;-89
2023/07/29 00:30:57;;;;;;;5.10;3.78;;;;;;;18.32;100.00;98941.03;5074214;28;20047;-89
2023/07/29 00:33:22;;;;;;;3.85;3.55;;;;;;;18.34;100.00;98947.84;5074203;28;20021;-89
2023/07/29 00:35:47;;;;;;;3.58;3.28;;;;;;;18.13;100.00;98920.78;5073063;28;20235;-89
2023/07/29 00:38:13;;;;;;;4.00;3.70;;;;;;;18.12;100.00;98930.50;5073961;28;20123;-89
2023/07/29 00:40:38;;;;;;;5.00;3.97;;;;;;;18.23;100.00;98957.69;5072823;28;20060;-89
2023/07/29 00:43:03;;;;;;;3.85;3.55;;;;;;;18.13;100.00;98942.69;5073724;28;20045;-89
2023/07/29 00:45:31;;;;;;;4.10;3.65;;;;;;;18.14;100.00;98954.91;5073618;28;20024;-89
2023/07/29 00:47:57;;;;;;;4.20;3.90;;;;;;;18.00;100.00;98925.50;5073785;28;20056;-89
2023/07/29 00:50:22;;;;;;;3.47;3.25;;;;;;;17.97;100.00;98944.19;5070963;28;20072;-89
2023/07/29 00:52:49;;;;;;;3.80;3.50;;;;;;;18.05;100.00;98954.91;5054370;28;20408;-89
2023/07/29 00:55:14;;;;;;;3.65;3.35;;;;;;;17.75;100.00;98908.38;5071060;28;20134;-89
2023/07/29 00:57:42;;;;;;;4.05;3.75;;;;;;;17.83;100.00;98927.81;5071286;28;20478;-89
2023/07/29 01:00:08;;;;;;;3.33;3.08;;;;;;;17.87;100.00;98947.66;5054016;28;20090;-88
2023/07/29 01:02:35;;;;;;;3.70;3.40;;;;;;;17.70;100.00;98919.28;5071109;28;20082;-89
2023/07/29 01:05:01;;;;;;;3.97;3.67;;;;;;;17.61;100.00;98910.41;5054237;28;20040;-89
2023/07/29 01:07:45;;;;;;;4.30;4.00;;;;;;;17.81;100.00;98948.19;5071022;28;20033;-89
2023/07/29 01:10:31;;;;;;;3.92;3.60;;;;;;;17.69;100.00;98939.50;5070865;28;20035;-88
2023/07/29 01:13:19;;;;;;;3.92;3.60;;;;;;;17.75;100.00;98954.00;5071093;28;20037;-89
2023/07/29 01:16:04;;;;;;;4.30;3.90;;;;;;;17.72;100.00;98959.50;5071000;28;20033;-89
2023/07/29 01:18:36;;;;;;;4.32;3.90;;;;;;;17.42;100.00;98907.69;5070727;28;20032;-89
2023/07/29 01:21:08;;;;;;;4.55;4.15;;;;;;;17.63;100.00;98955.03;5071387;28;20032;-89
2023/07/29 01:23:36;;;;;;;4.40;4.00;;;;;;;17.57;100.00;98945.00;5073268;28;20111;-89
2023/07/29 01:26:03;;;;;;;5.20;4.15;;;;;;;17.44;100.00;98922.41;5071934;28;20024;-89
2023/07/29 01:28:29;;;;;;;3.80;3.50;;;;;;;17.54;100.00;98937.41;5073094;28;20037;-89
2023/07/29 01:31:03;;;;;;;4.55;3.95;;;;;;;17.45;100.00;98941.66;5073282;28;20024;-89
2023/07/29 01:33:39;;;;;;;4.50;4.10;;;;;;;17.49;100.00;98947.47;5071492;28;20035;-89
2023/07/29 01:36:14;;;;;;;6.95;3.92;;;;;;;17.19;100.00;98896.50;5073160;28;20017;-89
2023/07/29 01:38:42;;;;;;;4.10;3.80;;;;;;;17.52;100.00;98955.09;5073316;28;20064;-89
2023/07/29 01:41:09;;;;;;;3.90;3.60;;;;;;;17.50;100.00;98962.31;5071427;28;20358;-89
2023/07/29 01:43:42;;;;;;;3.70;3.40;;;;;;;17.40;100.00;98944.69;5073162;28;20051;-89
2023/07/29 01:46:10;;;;;;;4.53;4.13;;;;;;;17.34;100.00;98934.66;5072444;28;20024;-89
2023/07/29 01:48:35;;;;;;;3.88;3.55;;;;;;;17.23;100.00;98915.50;5072871;28;20025;-89
2023/07/29 01:51:01;;;;;;;3.72;3.42;;;;;;;17.13;100.00;98903.13;5072831;28;20372;-89
2023/07/29 01:53:26;;;;;;;4.18;3.80;;;;;;;17.32;100.00;98935.75;5072468;28;20489;-89
2023/07/29 01:55:51;;;;;;;4.40;4.00;;;;;;;17.35;100.00;98941.59;5072587;28;20063;-89
2023/07/29 01:58:17;;;;;;;4.30;3.90;;;;;;;17.01;100.00;98887.56;5071492;28;20025;-89
2023/07/29 02:00:42;;;;;;;4.38;3.72;;;;;;;17.05;100.00;98917.91;5071057;28;20024;-89
2023/07/29 02:03:07;;;;;;;4.20;3.80;;;;;;;17.01;100.00;98917.31;5071029;28;20048;-89
2023/07/29 02:05:33;;;;;;;4.07;3.78;;;;;;;17.20;100.00;98959.53;5071200;28;20029;-89
2023/07/29 02:07:58;;;;;;;4.05;3.65;;;;;;;17.18;100.00;98942.22;5072452;28;20031;-89
2023/07/29 02:10:24;;;;;;;4.45;4.05;;;;;;;17.07;100.00;98934.41;5072136;28;20375;-89
2023/07/29 02:12:49;;;;;;;3.80;3.40;;;;;;;17.15;100.00;98952.97;5071018;28;20025;-89
2023/07/29 02:15:14;;;;;;;3.90;3.60;;;;;;;16.83;100.00;98908.38;5072451;28;20031;-89
2023/07/29 02:17:41;;;;;;;4.28;3.88;;;;;;;17.15;100.00;98966.13;5072329;28;20079;-89
2023/07/29 02:20:08;;;;;;;4.22;3.85;;;;;;;17.09;100.00;98959.63;5072009;28;20016;-89
2023/07/29 02:22:33;;;;;;;4.32;3.88;;;;;;;17.08;100.00;98951.84;5072465;28;20032;-89
2023/07/29 02:24:58;;;;;;;3.83;3.50;;;;;;;17.13;100.00;98957.56;5070845;28;20384;-89
2023/07/29 02:27:26;;;;;;;5.05;3.97;;;;;;;17.03;100.00;98931.19;5072114;28;20430;-89
2023/07/29 02:29:52;;;;;;;4.22;3.83;;;;;;;17.09;100.00;98946.44;5071961;28;20448;-89
2023/07/29 02:32:17;;;;;;;5.72;3.88;;;;;;;17.11;100.00;98949.81;5071754;28;20112;-88
2023/07/29 02:34:43;;;;;;;4.50;4.10;;;;;;;17.01;100.00;98943.63;5072410;28;20052;-89
2023/07/29 02:37:08;;;;;;;3.97;3.67;;;;;;;16.90;100.00;98926.16;5070511;28;20113;-88
2023/07/29 02:39:34;;;;;;;4.20;3.78;;;;;;;16.91;100.00;98924.34;5071947;28;20426;-89
2023/07/29 02:41:59;;;;;;;4.97;3.88;;;;;;;16.94;100.00;98926.72;5072250;28;20020;-89
2023/07/29 02:44:25;;;;;;;4.30;3.90;;;;;;;17.02;100.00;98931.31;5071390;28;20051;-88
2023/07/29 02:46:52;;;;;;;4.55;4.15;;;;;;;17.03;100.00;98933.00;5071844;28;20388;-88
2023/07/29 02:49:17;;;;;;;4.47;4.07;;;;;;;17.07;100.00;98931.78;5071642;28;20024;-88
2023/07/29 02:51:43;;;;;;;4.40;4.10;;;;;;;17.07;100.00;98943.13;5070629;28;20031;-88
2023/07/29 02:54:08;;;;;;;5.53;4.75;;;;;;;16.73;100.00;98878.53;5071610;28;20103;-88
2023/07/29 02:56:33;;;;;;;5.13;4.72;;;;;;;16.99;100.00;98921.06;5070356;28;20023;-88
2023/07/29 02:59:00;;;;;;;4.88;4.47;;;;;;;16.80;100.00;98896.31;5071761;28;20031;-88
2023/07/29 03:01:25;;;;;;;5.93;5.00;;;;;;;16.97;100.00;98929.06;5071811;28;20033;-89
2023/07/29 03:03:51;;;;;;;4.15;3.85;;;;;;;16.84;100.00;98905.59;5069164;28;20040;-88
2023/07/29 03:06:16;;;;;;;3.88;3.42;;;;;;;17.01;100.00;98943.63;5068939;28;20038;-89
2023/07/29 03:08:41;;;;;;;4.18;3.50;;;;;;;16.94;100.00;98924.09;5052511;28;20042;-89
2023/07/29 03:11:09;;;;;;;4.65;4.25;;;;;;;16.89;100.00;98921.00;5073570;28;20040;-89
2023/07/29 03:13:34;;;;;;;7.28;4.03;;;;;;;16.97;100.00;98931.72;5056435;28;20028;-89
2023/07/29 03:16:14;;;;;;;4.65;4.35;;;;;;;16.98;100.00;98941.28;5073214;28;20094;-89
2023/07/29 03:18:41;;;;;;;4.35;3.95;;;;;;;16.79;100.00;98905.16;5073063;28;20033;-89
2023/07/29 03:21:07;;;;;;;4.43;3.90;;;;;;;16.86;100.00;98914.22;5056071;28;20033;-89
2023/07/29 03:23:33;;;;;;;3.63;3.33;;;;;;;17.00;100.00;98936.72;5056075;28;20086;-88
2023/07/29 03:26:00;;;;;;;4.43;4.03;;;;;;;17.06;100.00;98954.59;5056146;28;20060;-88
2023/07/29 03:28:29;;;;;;;3.97;3.67;;;;;;;17.05;100.00;98934.53;5072781;28;20037;-89
2023/07/29 03:30:57;;;;;;;4.97;4.57;;;;;;;16.91;100.00;98914.66;5056109;28;20039;-89
2023/07/29 03:33:23;;;;;;;4.72;4.18;;;;;;;17.05;100.00;98933.69;5072611;28;20064;-89
2023/07/29 03:35:49;;;;;;;4.30;3.90;;;;;;;17.10;100.00;98955.19;5072996;28;20055;-89
2023/07/29 03:38:14;;;;;;;3.78;3.47;;;;;;;17.10;100.00;98956.00;5072338;28;20531;-89
2023/07/29 03:40:40;;;;;;;4.35;3.95;;;;;;;17.15;100.00;98963.50;5072995;28;20044;-88
2023/07/29 03:43:06;;;;;;;4.05;3.75;;;;;;;17.20;100.00;98972.69;5073752;28;20053;-89
2023/07/29 03:45:31;;;;;;;3.97;3.67;;;;;;;16.99;100.00;98921.91;5074979;28;20506;-89
2023/07/29 03:47:57;;;;;;;4.85;4.45;;;;;;;17.29;100.00;98972.88;5073725;28;20029;-89
2023/07/29 03:50:22;;;;;;;5.13;4.32;;;;;;;17.32;100.00;98967.34;5074720;28;20361;-89
2023/07/29 03:52:48;;;;;;;5.43;4.95;;;;;;;17.23;100.00;98952.34;5073562;28;20119;-88
2023/07/29 03:55:13;;;;;;;5.22;4.72;;;;;;;17.27;100.00;98951.13;5073257;28;20034;-88
2023/07/29 03:57:38;;;;;;;7.45;6.10;;;;;;;17.40;100.00;98976.28;5074944;28;20021;-89
2023/07/29 04:00:05;;;;;;;8.13;7.32;;;;;;;17.45;100.00;98975.88;5074897;28;20109;-89
2023/07/29 04:02:31;;;;;;;8.23;7.43;;;;;;;17.56;100.00;98981.03;5073337;28;20028;-89
2023/07/29 04:04:56;;;;;;;8.07;7.28;;;;;;;17.55;100.00;98968.03;5072078;28;20075;-89
2023/07/29 04:07:22;;;;;;;9.77;8.35;;;;;;;17.41;100.00;98945.53;5055120;28;20139;-89
2023/07/29 04:09:47;;;;;;;7.93;7.22;;;;;;;17.57;100.00;98969.56;5055330;28;20039;-89
2023/07/29 04:12:12;;;;;;;13.43;8.35;;;;;;;17.69;100.00;98986.06;5072176;28;20085;-89
2023/07/29 04:14:38;;;;;;;9.50;8.65;;;;;;;17.69;100.00;98979.00;5072007;28;20033;-89
2023/07/29 04:17:03;;;;;;;8.70;7.85;;;;;;;17.78;100.00;98977.44;5072175;28;20048;-89
2023/07/29 04:19:29;;;;;;;9.18;8.38;;;;;;;17.68;100.00;98951.00;5054994;28;20032;-88
2023/07/29 04:21:54;;;;;;;9.85;8.95;;;;;;;17.70;100.00;98925.41;5071113;28;20545;-89
2023/07/29 04:24:20;;;;;;;10.30;9.32;;;;;;;17.83;100.00;98946.25;5071589;28;20043;-89
2023/07/29 04:26:45;;;;;;;9.95;9.02;;;;;;;18.00;100.00;98950.03;5055082;28;20067;-89
2023/07/29 04:29:11;;;;;;;8.70;7.95;;;;;;;18.06;100.00;98957.38;5054961;28;20388;-89
2023/07/29 04:31:37;;;;;;;8.60;7.70;;;;;;;18.24;100.00;98981.25;5054693;28;20469;-89
2023/07/29 04:34:02;;;;;;;8.77;7.95;;;;;;;18.10;100.00;98935.06;5071808;28;20035;-89
2023/07/29 04:36:27;;;;;;;9.68;8.70;;;;;;;18.46;100.00;98974.94;5073368;28;20047;-89
2023/07/29 04:38:53;;;;;;;8.68;7.82;;;;;;;18.78;100.00;98958.84;5074024;28;20089;-89
2023/07/29 04:41:18;;;;;;;8.32;7.53;;;;;;;19.03;100.00;98946.84;5072740;28;20060;-89
2023/07/29 04:43:43;;;;;;;8.75;7.95;;;;;;;19.34;100.00;98981.81;5074054;28;20090;-89
2023/07/29 04:46:09;;;;;;;7.93;7.20;;;;;;;19.33;100.00;98980.13;5074063;28;20153;-89
2023/07/29 04:48:34;;;;;;;8.30;7.55;;;;;;;19.32;100.00;98978.47;5072432;28;20452;-89
2023/07/29 04:51:00;;;;;;;8.07;7.32;;;;;;;19.27;100.00;98972.78;5072671;28;20020;-89
2023/07/29 04:53:25;;;;;;;7.72;7.03;;;;;;;19.23;100.00;98981.97;5073515;28;20482;-89
2023/07/29 04:55:50;;;;;;;9.02;7.97;;;;;;;19.23;100.00;98986.41;5073663;28;20084;-89
2023/07/29 04:58:16;;;;;;;8.40;7.50;;;;;;;19.42;100.00;98967.84;5073656;28;20035;-90
2023/07/29 05:00:41;;;;;;;8.23;7.43;;;;;;;20.16;100.00;98974.91;5074058;28;20039;-89
2023/07/29 05:03:06;;;;;;;14.90;8.15;;;;;;;20.51;100.00;98976.78;5072390;28;20071;-89
2023/07/29 05:05:32;;;;;;;7.53;6.78;;;;;;;20.62;100.00;98989.78;5073360;28;20488;-89
2023/07/29 05:07:57;;;;;;;8.55;7.13;;;;;;;20.48;100.00;98932.13;5073681;28;20043;-89
2023/07/29 05:10:23;;;;;;;7.13;6.43;;;;;;;20.88;100.00;98971.31;5073728;28;20365;-90
2023/07/29 05:12:49;;;;;;;8.00;6.95;;;;;;;21.03;100.00;98991.94;5073561;28;20144;-89
2023/07/29 05:15:14;;;;;;;6.72;6.03;;;;;;;21.07;100.00;98995.94;5073520;28;20027;-89
2023/07/29 05:17:40;;;;;;;5.68;5.18;;;;;;;21.30;100.00;98978.56;5073154;28;20025;-89
2023/07/29 05:20:06;;;;;;;4.07;3.67;;;;;;;21.44;100.00;98985.13;5072022;28;20530;-90
2023/07/29 05:22:31;;;;;;;4.55;4.15;;;;;;;21.22;100.00;98956.47;5071477;28;20028;-89
2023/07/29 05:24:57;;;;;;;5.25;4.03;;;;;;;21.16;100.00;98963.25;5071799;28;20082;-90
2023/07/29 05:27:22;;;;;;;4.05;3.55;;;;;;;21.05;100.00;98963.50;5071689;28;20036;-89
2023/07/29 05:29:47;;;;;;;4.30;3.90;;;;;;;21.16;100.00;98984.44;5071953;28;20078;-90
2023/07/29 05:32:13;;;;;;;3.92;3.58;;;;;;;21.34;100.00;98981.75;5071810;28;20078;-90
2023/07/29 05:34:38;;;;;;;4.13;3.60;;;;;;;21.57;100.00;98990.81;5071590;28;20075;-90
2023/07/29 05:37:04;;;;;;;4.13;3.15;;;;;;;21.85;100.00;98982.66;5071671;28;20105;-90
2023/07/29 05:39:30;;;;;;;5.22;3.50;;;;;;;22.04;100.00;98966.50;5072582;28;20028;-90
2023/07/29 05:41:55;;;;;;;4.00;3.63;;;;;;;22.79;99.46;99000.16;5071671;28;20372;-91
2023/07/29 05:44:21;;;;;;;6.63;4.18;;;;;;;23.37;97.11;98985.84;5071095;28;20110;-91
2023/07/29 05:46:47;;;;;;;3.90;3.50;;;;;;;23.75;95.26;99002.06;5072689;28;20025;-91
2023/07/29 05:49:12;;;;;;;4.20;3.80;;;;;;;23.85;93.44;98984.91;5071388;28;20472;-91
2023/07/29 05:51:38;;;;;;;3.72;3.42;;;;;;;24.06;92.65;99002.09;5071075;28;20053;-91
2023/07/29 05:54:03;;;;;;;4.25;3.50;;;;;;;24.15;91.27;98995.75;5071148;28;20024;-89
2023/07/29 05:56:31;;;;;;;4.78;3.30;;;;;;;24.11;91.33;98978.47;5072458;28;20057;-89
2023/07/29 05:58:56;;;;;;;3.47;3.20;;;;;;;24.21;91.26;98963.09;5072770;28;20020;-89
2023/07/29 06:01:21;;;;;;;4.25;3.17;;;;;;;24.50;90.43;98977.59;5070992;28;20035;-90
2023/07/29 06:03:47;;;;;;;3.95;2.90;;;;;;;24.93;89.37;98997.41;5072555;28;20106;-90
2023/07/29 06:06:12;;;;;;;2.90;2.67;;;;;;;25.11;87.62;98999.75;5072432;28;20028;-90
2023/07/29 06:08:38;;;;;;;3.65;3.30;;;;;;;25.21;86.86;98994.19;5070699;28;20024;-89
2023/07/29 06:11:06;;;;;;;3.35;3.05;;;;;;;25.26;86.92;98987.31;5072513;28;20039;-89
2023/07/29 06:13:31;;;;;;;3.17;2.85;;;;;;;25.39;86.33;98976.00;5072185;28;20024;-89
2023/07/29 06:15:57;;;;;;;3.95;2.97;;;;;;;25.69;85.80;98984.00;5071031;28;20039;-89
2023/07/29 06:18:22;;;;;;;3.13;2.50;;;;;;;25.98;84.90;99007.19;5071995;28;20020;-89
2023/07/29 06:20:47;;;;;;;4.00;2.70;;;;;;;25.94;84.13;98965.91;5072101;28;20029;-89
2023/07/29 06:23:13;;;;;;;2.80;2.53;;;;;;;26.20;83.35;98968.03;5070772;28;20020;-89
2023/07/29 06:25:38;;;;;;;2.67;2.13;;;;;;;26.51;83.04;99005.19;5072038;28;20082;-88
2023/07/29 06:28:04;;;;;;;2.83;2.40;;;;;;;26.67;82.65;98985.38;5072213;28;20033;-88
2023/07/29 06:30:30;;;;;;;2.65;2.45;;;;;;;26.90;81.35;98982.53;5071922;28;20040;-89
2023/07/29 06:32:55;;;;;;;5.60;2.50;;;;;;;27.07;79.53;98973.22;5072051;28;20024;-89
2023/07/29 06:35:20;;;;;;;2.30;2.10;;;;;;;27.35;80.07;98989.28;5072308;28;20020;-89
2023/07/29 06:37:46;;;;;;;2.60;2.22;;;;;;;27.60;78.87;98990.47;5071552;28;20025;-89
2023/07/29 06:40:11;;;;;;;2.78;2.38;;;;;;;27.48;78.44;98933.19;5070825;28;20032;-89
2023/07/29 06:42:37;;;;;;;3.08;2.20;;;;;;;28.02;77.41;98977.94;5071906;28;20049;-86
2023/07/29 06:45:04;;;;;;;2.10;2.00;;;;;;;28.40;76.62;98995.38;5071730;28;20075;-90
2023/07/29 06:47:29;;;;;;;2.20;2.05;;;;;;;28.66;75.38;98967.81;5071813;28;20033;-88
2023/07/29 06:49:54;;;;;;;2.33;2.20;;;;;;;29.18;74.50;98972.38;5072098;28;20464;-88
2023/07/29 06:52:20;;;;;;;2.50;2.30;;;;;;;29.72;71.65;98957.84;5071885;28;20029;-87
2023/07/29 06:54:45;;;;;;;2.00;1.90;;;;;;;30.03;70.62;98958.94;5070529;28;20391;-87
2023/07/29 06:57:10;;;;;;;4.05;2.30;;;;;;;30.09;69.49;98947.34;5071878;28;20021;-87
2023/07/29 06:59:36;;;;;;;2.20;2.10;;;;;;;30.40;69.64;98981.50;5071679;28;20071;-89
2023/07/29 07:02:01;;;;;;;3.10;2.30;;;;;;;30.65;68.76;98972.66;5071885;28;20036;-87
2023/07/29 07:04:27;;;;;;;2.70;2.50;;;;;;;31.04;68.24;98950.03;5071488;28;20400;-87
2023/07/29 07:06:52;;;;;;;2.20;2.10;;;;;;;31.99;66.43;98979.28;5071699;28;20031;-87
2023/07/29 07:09:17;;;;;;;2.70;2.50;;;;;;;32.38;63.82;98972.56;5071824;28;20024;-88
2023/07/29 07:11:43;;;;;;;2.00;1.90;;;;;;;32.09;64.44;98912.22;5071379;28;20095;-87
2023/07/29 07:14:08;;;;;;;2.20;2.00;;;;;;;32.54;64.22;98979.19;5071769;28;20028;-87
2023/07/29 07:16:36;;;;;;;2.40;2.20;;;;;;;32.69;64.04;98978.75;5071370;28;20025;-87
2023/07/29 07:19:01;;;;;;;2.40;2.20;;;;;;;33.10;63.47;98979.78;5071586;28;20032;-87
2023/07/29 07:21:27;;;;;;;2.47;2.28;;;;;;;33.71;61.43;98979.28;5071293;28;20423;-87
2023/07/29 07:23:52;;;;;;;2.28;2.08;;;;;;;34.31;59.89;98975.34;5071743;28;20036;-87
2023/07/29 07:26:17;;;;;;;2.03;1.90;;;;;;;35.10;59.98;98977.25;5071721;28;20043;-87
2023/07/29 07:28:43;;;;;;;2.47;2.28;;;;;;;36.39;57.30;98984.09;5071864;28;20094;-88
2023/07/29 07:31:08;;;;;;;2.60;2.40;;;;;;;37.93;54.66;98984.16;5071567;28;20098;-87
2023/07/29 07:33:33;;;;;;;2.00;1.90;;;;;;;39.37;51.58;98986.78;5071281;28;20025;-87
2023/07/29 07:35:59;;;;;;;2.45;2.13;;;;;;;40.40;50.22;98974.34;5070096;28;20482;-87
2023/07/29 07:38:24;;;;;;;2.20;2.00;;;;;;;41.30;48.86;98970.34;5071450;28;20565;-88
2023/07/29 07:40:57;;;;;;;2.05;1.95;;;;;;;42.25;48.51;98985.06;5071571;28;20033;-89
2023/07/29 07:43:23;;;;;;;2.50;2.30;;;;;;;42.80;46.81;98979.00;5071372;28;20048;-88
2023/07/29 07:45:49;;;;;;;2.75;1.90;;;;;;;43.29;47.18;98967.47;5071119;28;20028;-88
2023/07/29 07:48:16;;;;;;;2.80;2.53;;;;;;;43.73;46.25;98946.84;5071405;28;20028;-87
2023/07/29 07:50:41;;;;;;;2.42;2.22;;;;;;;44.19;45.38;98967.81;5069722;28;20021;-87
2023/07/29 07:53:07;;;;;;;1.80;1.70;;;;;;;44.32;44.41;98941.44;5071285;28;20038;-88
2023/07/29 07:55:32;;;;;;;2.72;2.40;;;;;;;44.48;44.81;98950.13;5071135;28;20056;-87
2023/07/29 07:57:57;;;;;;;3.63;2.20;;;;;;;44.61;44.19;98949.25;5074745;28;20036;-88
2023/07/29 08:00:23;;;;;;;2.20;2.10;;;;;;;44.51;45.07;98936.59;5073590;28;20028;-87
2023/07/29 08:02:48;;;;;;;2.00;1.90;;;;;;;44.79;44.54;98939.19;5074618;28;20028;-87
2023/07/29 08:05:13;;;;;;;2.58;2.38;;;;;;;44.65;43.75;98933.00;5074669;28;20468;-87
2023/07/29 08:07:39;;;;;;;1.98;1.88;;;;;;;44.65;44.36;98950.28;5074516;28;20471;-88
2023/07/29 08:10:05;;;;;;;2.53;2.33;;;;;;;44.42;44.11;98932.19;5076147;28;20446;-87
2023/07/29 08:12:30;;;;;;;2.75;2.53;;;;;;;44.36;44.10;98936.16;5074251;28;20547;-87
2023/07/29 08:14:55;;;;;;;3.40;2.53;;;;;;;44.29;44.35;98922.84;5072679;28;20115;-87
2023/07/29 08:17:21;;;;;;;2.10;2.00;;;;;;;43.86;43.95;98927.97;5074195;28;20031;-87
2023/07/29 08:19:46;;;;;;;2.20;2.10;;;;;;;43.65;43.82;98930.31;5073649;28;20032;-88
2023/07/29 08:22:11;;;;;;;2.90;2.25;;;;;;;43.45;44.85;98932.38;5074159;28;20031;-87
2023/07/29 08:24:37;;;;;;;2.35;2.05;;;;;;;43.27;44.50;98919.53;5073688;28;20035;-87
2023/07/29 08:27:02;;;;;;;2.13;2.03;;;;;;;43.14;44.90;98914.88;5072714;28;20032;-87
2023/07/29 08:29:27;;;;;;;2.42;2.28;;;;;;;42.90;44.80;98921.34;5074097;28;20032;-87
2023/07/29 08:31:55;;;;;;;4.18;3.88;;;;;;;42.13;45.37;98899.84;5072405;28;20032;-86
2023/07/29 08:34:20;;;;;;;3.40;2.15;;;;;;;40.54;46.80;98897.28;5073808;28;20399;-87
2023/07/29 08:36:46;;;;;;;2.50;2.30;;;;;;;39.16;48.99;98901.53;5073728;28;20028;-87
2023/07/29 08:39:11;;;;;;;2.40;2.20;;;;;;;37.88;50.68;98903.44;5073634;28;20139;-87
2023/07/29 08:41:53;;;;;;;2.45;2.25;;;;;;;36.38;51.89;98863.13;5073772;28;20025;-87
2023/07/29 08:44:23;;;;;;;2.05;1.90;;;;;;;35.30;54.24;98895.53;5073528;28;20044;-86
2023/07/29 08:46:49;;;;;;;1.90;1.80;;;;;;;34.45;55.19;98862.31;5073384;28;20021;-86
2023/07/29 08:49:18;;;;;;;3.90;3.53;;;;;;;33.94;56.17;98878.44;5073417;28;20111;-86
2023/07/29 08:51:45;;;;;;;2.10;2.00;;;;;;;33.50;58.08;98885.38;5073362;28;20020;-87
2023/07/29 08:54:10;;;;;;;1.88;1.77;;;;;;;33.16;59.73;98877.09;5073530;28;20040;-87
2023/07/29 08:56:36;;;;;;;2.83;2.05;;;;;;;32.90;59.41;98864.91;5073372;28;20032;-87
2023/07/29 08:59:04;;;;;;;1.88;1.70;;;;;;;32.75;59.56;98862.69;5073093;28;20028;-86
2023/07/29 09:01:30;;;;;;;2.83;1.95;;;;;;;32.77;59.96;98897.50;5073382;28;20017;-87
2023/07/29 09:03:56;;;;;;;1.75;1.65;;;;;;;32.58;60.11;98880.63;5073345;28;20451;-89
2023/07/29 09:06:22;;;;;;;1.70;1.60;;;;;;;32.44;60.34;98882.69;5073624;28;20062;-88
2023/07/29 09:08:50;;;;;;;2.00;1.90;;;;;;;32.23;60.84;98862.47;5073134;28;20115;-92
2023/07/29 09:11:17;;;;;;;1.85;1.75;;;;;;;32.23;61.48;98880.50;5072202;28;20067;-90
2023/07/29 09:13:43;;;;;;;5.82;2.70;;;;;;;31.89;60.06;98857.81;5071917;28;20032;-88
2023/07/29 09:16:09;;;;;;;1.92;1.83;;;;;;;31.84;61.15;98876.53;5072001;28;20029;-88
2023/07/29 09:18:34;;;;;;;3.15;1.75;;;;;;;31.52;61.53;98852.47;5073309;28;20365;-89
2023/07/29 09:21:00;;;;;;;3.15;2.10;;;;;;;31.63;62.99;98877.81;5073298;28;20025;-89
2023/07/29 09:23:27;;;;;;;3.38;1.90;;;;;;;31.43;62.89;98862.72;5073532;28;20024;-88
2023/07/29 09:26:00;;;;;;;1.83;1.73;;;;;;;31.54;63.14;98863.84;5073088;28;20063;-89
2023/07/29 09:28:27;;;;;;;2.75;1.77;;;;;;;31.53;61.72;98875.66;5073076;28;20438;-89
2023/07/29 09:30:53;;;;;;;1.80;1.70;;;;;;;31.18;61.60;98849.34;5073130;28;20514;-89
2023/07/29 09:33:18;;;;;;;1.88;1.77;;;;;;;31.02;62.34;98874.13;5071893;28;20455;-88
2023/07/29 09:35:44;;;;;;;3.45;1.90;;;;;;;30.78;63.01;98868.56;5072737;28;20036;-88
2023/07/29 09:38:15;;;;;;;1.90;1.80;;;;;;;30.70;62.40;98865.31;5072797;28;20110;-88
2023/07/29 09:40:41;;;;;;;1.98;1.88;;;;;;;30.75;63.49;98871.69;5071151;28;20058;-89
2023/07/29 09:43:10;;;;;;;1.70;1.60;;;;;;;30.80;63.58;98852.19;5072525;28;20083;-86
2023/07/29 09:45:36;;;;;;;1.75;1.65;;;;;;;30.86;62.60;98855.88;5074468;28;20024;-87
2023/07/29 09:48:04;;;;;;;2.03;1.92;;;;;;;30.69;62.09;98834.09;5073197;28;20039;-86
2023/07/29 09:50:31;;;;;;;2.55;1.90;;;;;;;30.58;62.82;98839.13;5071697;28;20074;-87
2023/07/29 09:53:00;;;;;;;2.55;1.80;;;;;;;30.65;63.39;98857.09;5072452;28;20387;-88
2023/07/29 09:55:26;;;;;;;2.17;1.98;;;;;;;30.36;63.46;98819.09;5072506;28;20028;-89
2023/07/29 09:58:03;;;;;;;1.92;1.52;;;;;;;30.55;63.39;98871.00;5072445;28;20071;-89
2023/07/29 10:00:30;;;;;;;1.88;1.77;;;;;;;30.37;64.14;98836.84;5071196;28;20031;-88
2023/07/29 10:02:56;;;;;;;2.05;1.95;;;;;;;30.57;63.47;98869.75;5072554;28;20119;-87
2023/07/29 10:05:23;;;;;;;3.08;2.05;;;;;;;30.45;63.29;98850.00;5072685;28;20105;-86
2023/07/29 10:07:49;;;;;;;2.00;1.80;;;;;;;30.53;64.06;98865.84;5072485;28;20380;-86
2023/07/29 10:10:15;;;;;;;1.90;1.70;;;;;;;30.46;63.23;98851.66;5055922;28;20283;-85
2023/07/29 10:12:42;;;;;;;2.15;1.88;;;;;;;30.21;63.81;98821.25;5052816;28;20472;-87
2023/07/29 10:15:08;;;;;;;3.42;1.90;;;;;;;30.25;63.96;98855.53;5052743;28;20025;-87
2023/07/29 10:17:37;;;;;;;1.85;1.75;;;;;;;30.06;63.53;98827.75;5052517;28;20491;-87
2023/07/29 10:20:10;;;;;;;2.35;1.80;;;;;;;30.00;61.69;98834.00;5051549;28;20369;-87
2023/07/29 10:22:43;;;;;;;3.85;1.88;;;;;;;29.81;63.76;98834.94;5051965;28;20120;-87
2023/07/29 10:25:22;;;;;;;2.10;2.00;;;;;;;29.91;63.87;98832.59;5052322;28;20025;-87
2023/07/29 10:27:52;;;;;;;1.77;1.67;;;;;;;30.17;63.49;98850.44;5051962;28;20503;-87
2023/07/29 10:30:17;;;;;;;1.98;1.88;;;;;;;30.20;63.06;98852.69;5050915;28;20021;-85
2023/07/29 10:32:44;;;;;;;2.08;1.90;;;;;;;30.16;63.20;98845.28;5051926;28;20037;-88
2023/07/29 10:35:11;;;;;;;2.45;1.67;;;;;;;30.10;63.44;98830.84;5051978;28;20032;-89
2023/07/29 10:37:39;;;;;;;2.85;1.77;;;;;;;30.00;63.49;98807.16;5050628;28;20102;-86
2023/07/29 10:40:07;;;;;;;2.40;2.20;;;;;;;29.97;64.16;98828.25;5052093;28;20083;-86
2023/07/29 10:42:33;;;;;;;2.20;2.00;;;;;;;29.79;64.17;98802.97;5052384;28;20049;-87
2023/07/29 10:44:58;;;;;;;2.05;1.95;;;;;;;29.94;63.70;98828.66;5051860;28;20043;-86
2023/07/29 10:47:25;;;;;;;2.60;2.40;;;;;;;29.70;63.34;98814.13;5057237;28;20052;-86
2023/07/29 10:49:58;;;;;;;2.60;2.40;;;;;;;29.47;64.15;98777.09;5070667;28;20079;-86
2023/07/29 10:52:29;;;;;;;2.70;2.50;;;;;;;29.71;64.33;98824.69;5070911;28;20476;-87
2023/07/29 10:54:58;;;;;;;3.03;2.83;;;;;;;29.75;64.18;98790.16;5071024;28;20480;-87
2023/07/29 10:57:33;;;;;;;2.88;2.67;;;;;;;30.03;62.82;98813.94;5072074;28;20387;-88
2023/07/29 10:59:59;;;;;;;2.90;2.70;;;;;;;30.02;61.78;98799.69;5068157;28;20131;-87
2023/07/29 11:03:00;;;;;;;3.00;2.80;;;;;;;30.22;61.89;98799.56;5069115;28;20120;-88
2023/07/29 11:05:26;;;;;;;;;;;;;;;30.15;61.70;98790.75;5069766;28;20039;-87
2023/07/29 11:07:51;;;;;;;3.13;2.92;;;;;;;29.94;61.17;98778.47;5052174;28;19912;-87
2023/07/29 11:10:17;;;;;;;2.97;2.78;;;;;;;29.75;62.13;98769.53;5069360;28;20590;-87
2023/07/29 11:12:47;;;;;;;3.17;2.63;;;;;;;29.85;62.82;98787.03;5068982;28;20064;-92
2023/07/29 11:15:12;;;;;;;2.92;2.72;;;;;;;29.90;62.83;98790.69;5052274;28;20492;-87
2023/07/29 11:17:44;;;;;;;3.00;2.70;;;;;;;30.07;62.09;98785.59;5069089;28;20037;-88
2023/07/29 11:20:10;;;;;;;2.78;2.58;;;;;;;30.05;61.24;98756.31;5069525;28;20609;-86
2023/07/29 11:22:37;;;;;;;2.60;2.40;;;;;;;30.15;61.30;98779.19;5079460;28;20055;-86
2023/07/29 11:25:03;;;;;;;2.38;2.28;;;;;;;30.03;60.71;98750.31;5071558;28;20043;-87
2023/07/29 11:27:29;;;;;;;2.58;2.38;;;;;;;30.15;60.15;98742.41;5089061;28;20032;-88